sensor_id;sensor_type;location;lat;lon;timestamp;temperature;humidity
65179;DHT22;51849;47.476;8.084;2022-09-27T00:02:19;10.70;74.90
65179;DHT22;51849;47.476;8.084;2022-09-27T00:04:45;10.80;73.40
65179;DHT22;51849;47.476;8.084;2022-09-27T00:07:11;10.80;74.30
65179;DHT22;51849;47.476;8.084;2022-09-27T00:09:36;10.80;74.30
65179;DHT22;51849;47.476;8.084;2022-09-27T00:12:02;10.80;73.50
65179;DHT22;51849;47.476;8.084;2022-09-27T00:14:28;10.80;74.90
65179;DHT22;51849;47.476;8.084;2022-09-27T00:16:54;10.80;75.20
65179;DHT22;51849;47.476;8.084;2022-09-27T00:19:22;10.70;74.90
65179;DHT22;51849;47.476;8.084;2022-09-27T00:21:49;10.80;74.80
65179;DHT22;51849;47.476;8.084;2022-09-27T00:24:16;10.80;74.40
65179;DHT22;51849;47.476;8.084;2022-09-27T00:26:44;10.90;74.40
65179;DHT22;51849;47.476;8.084;2022-09-27T00:29:11;10.90;73.70
65179;DHT22;51849;47.476;8.084;2022-09-27T00:31:38;11.00;72.80
65179;DHT22;51849;47.476;8.084;2022-09-27T00:34:04;11.00;72.00
65179;DHT22;51849;47.476;8.084;2022-09-27T00:36:31;11.10;72.40
65179;DHT22;51849;47.476;8.084;2022-09-27T00:38:58;11.10;71.50
65179;DHT22;51849;47.476;8.084;2022-09-27T00:41:26;11.10;72.20
65179;DHT22;51849;47.476;8.084;2022-09-27T00:43:54;11.20;71.00
65179;DHT22;51849;47.476;8.084;2022-09-27T00:46:27;11.20;71.90
65179;DHT22;51849;47.476;8.084;2022-09-27T00:49:03;11.10;72.50
65179;DHT22;51849;47.476;8.084;2022-09-27T00:51:36;11.10;72.80
65179;DHT22;51849;47.476;8.084;2022-09-27T00:54:04;11.10;72.60
65179;DHT22;51849;47.476;8.084;2022-09-27T00:56:32;11.10;73.50
65179;DHT22;51849;47.476;8.084;2022-09-27T00:59:01;11.10;74.80
65179;DHT22;51849;47.476;8.084;2022-09-27T01:01:31;11.00;76.40
65179;DHT22;51849;47.476;8.084;2022-09-27T01:03:59;10.90;77.20
65179;DHT22;51849;47.476;8.084;2022-09-27T01:06:30;10.80;77.70
65179;DHT22;51849;47.476;8.084;2022-09-27T01:08:55;10.80;77.20
65179;DHT22;51849;47.476;8.084;2022-09-27T01:11:24;10.70;79.10
65179;DHT22;51849;47.476;8.084;2022-09-27T01:22:31;10.50;82.30
65179;DHT22;51849;47.476;8.084;2022-09-27T01:25:40;10.40;82.70
65179;DHT22;51849;47.476;8.084;2022-09-27T01:30:49;10.20;83.50
65179;DHT22;51849;47.476;8.084;2022-09-27T01:33:39;10.10;83.30
65179;DHT22;51849;47.476;8.084;2022-09-27T01:36:18;10.10;83.50
65179;DHT22;51849;47.476;8.084;2022-09-27T01:44:45;9.90;85.50
65179;DHT22;51849;47.476;8.084;2022-09-27T01:47:22;9.90;85.50
65179;DHT22;51849;47.476;8.084;2022-09-27T01:49:55;9.80;85.90
65179;DHT22;51849;47.476;8.084;2022-09-27T01:52:25;9.70;85.80
65179;DHT22;51849;47.476;8.084;2022-09-27T01:54:57;9.80;85.60
65179;DHT22;51849;47.476;8.084;2022-09-27T01:57:29;9.80;85.20
65179;DHT22;51849;47.476;8.084;2022-09-27T02:00:07;9.80;85.40
65179;DHT22;51849;47.476;8.084;2022-09-27T02:02:36;9.80;85.80
65179;DHT22;51849;47.476;8.084;2022-09-27T02:05:09;9.80;85.70
65179;DHT22;51849;47.476;8.084;2022-09-27T02:07:41;9.80;85.50
65179;DHT22;51849;47.476;8.084;2022-09-27T02:10:14;9.80;86.00
65179;DHT22;51849;47.476;8.084;2022-09-27T02:12:48;9.80;86.10
65179;DHT22;51849;47.476;8.084;2022-09-27T02:15:21;9.90;85.80
65179;DHT22;51849;47.476;8.084;2022-09-27T02:20:38;9.80;86.40
65179;DHT22;51849;47.476;8.084;2022-09-27T02:25:50;9.80;85.90
65179;DHT22;51849;47.476;8.084;2022-09-27T02:28:23;9.70;86.20
65179;DHT22;51849;47.476;8.084;2022-09-27T02:30:50;9.70;85.80
65179;DHT22;51849;47.476;8.084;2022-09-27T02:33:18;9.70;85.60
65179;DHT22;51849;47.476;8.084;2022-09-27T02:35:47;9.80;85.70
65179;DHT22;51849;47.476;8.084;2022-09-27T02:38:12;9.80;86.30
65179;DHT22;51849;47.476;8.084;2022-09-27T02:40:42;9.80;85.70
65179;DHT22;51849;47.476;8.084;2022-09-27T02:43:09;9.80;85.50
65179;DHT22;51849;47.476;8.084;2022-09-27T02:53:52;9.80;85.50
65179;DHT22;51849;47.476;8.084;2022-09-27T03:05:19;9.80;85.00
65179;DHT22;51849;47.476;8.084;2022-09-27T03:07:48;9.80;83.70
65179;DHT22;51849;47.476;8.084;2022-09-27T03:10:20;9.80;84.40
65179;DHT22;51849;47.476;8.084;2022-09-27T03:12:48;9.70;84.50
65179;DHT22;51849;47.476;8.084;2022-09-27T03:15:14;9.70;83.90
65179;DHT22;51849;47.476;8.084;2022-09-27T03:17:40;9.70;83.10
65179;DHT22;51849;47.476;8.084;2022-09-27T03:20:06;9.60;83.30
65179;DHT22;51849;47.476;8.084;2022-09-27T03:22:33;9.60;83.40
65179;DHT22;51849;47.476;8.084;2022-09-27T03:25:00;9.50;83.20
65179;DHT22;51849;47.476;8.084;2022-09-27T03:27:26;9.50;83.50
65179;DHT22;51849;47.476;8.084;2022-09-27T03:29:51;9.50;83.90
65179;DHT22;51849;47.476;8.084;2022-09-27T03:32:17;9.40;83.30
65179;DHT22;51849;47.476;8.084;2022-09-27T03:34:43;9.30;83.60
65179;DHT22;51849;47.476;8.084;2022-09-27T03:37:09;9.30;83.90
65179;DHT22;51849;47.476;8.084;2022-09-27T03:39:34;9.20;83.80
65179;DHT22;51849;47.476;8.084;2022-09-27T03:42:00;9.40;82.00
65179;DHT22;51849;47.476;8.084;2022-09-27T03:44:26;9.30;82.50
65179;DHT22;51849;47.476;8.084;2022-09-27T03:46:52;9.30;82.60
65179;DHT22;51849;47.476;8.084;2022-09-27T03:49:17;9.30;82.50
65179;DHT22;51849;47.476;8.084;2022-09-27T03:51:43;9.30;82.30
65179;DHT22;51849;47.476;8.084;2022-09-27T03:54:09;9.30;82.40
65179;DHT22;51849;47.476;8.084;2022-09-27T03:56:37;9.40;82.00
65179;DHT22;51849;47.476;8.084;2022-09-27T03:59:03;9.40;82.70
65179;DHT22;51849;47.476;8.084;2022-09-27T04:01:29;9.30;83.10
65179;DHT22;51849;47.476;8.084;2022-09-27T04:03:54;9.30;83.40
65179;DHT22;51849;47.476;8.084;2022-09-27T04:06:20;9.30;83.30
65179;DHT22;51849;47.476;8.084;2022-09-27T04:08:47;9.40;83.20
65179;DHT22;51849;47.476;8.084;2022-09-27T04:11:12;9.30;83.60
65179;DHT22;51849;47.476;8.084;2022-09-27T04:13:39;9.20;83.80
65179;DHT22;51849;47.476;8.084;2022-09-27T04:16:05;9.20;83.70
65179;DHT22;51849;47.476;8.084;2022-09-27T04:18:32;9.20;83.30
65179;DHT22;51849;47.476;8.084;2022-09-27T04:20:58;9.30;83.70
65179;DHT22;51849;47.476;8.084;2022-09-27T04:23:23;9.30;83.60
65179;DHT22;51849;47.476;8.084;2022-09-27T04:25:49;9.30;83.60
65179;DHT22;51849;47.476;8.084;2022-09-27T04:28:17;9.30;83.90
65179;DHT22;51849;47.476;8.084;2022-09-27T04:30:44;9.30;84.10
65179;DHT22;51849;47.476;8.084;2022-09-27T04:33:10;9.30;83.50
65179;DHT22;51849;47.476;8.084;2022-09-27T04:35:36;9.30;82.40
65179;DHT22;51849;47.476;8.084;2022-09-27T04:38:21;9.30;81.60
65179;DHT22;51849;47.476;8.084;2022-09-27T04:40:48;9.30;82.20
65179;DHT22;51849;47.476;8.084;2022-09-27T04:43:15;9.30;81.90
65179;DHT22;51849;47.476;8.084;2022-09-27T04:45:44;9.30;82.40
65179;DHT22;51849;47.476;8.084;2022-09-27T04:48:10;9.30;81.90
65179;DHT22;51849;47.476;8.084;2022-09-27T04:50:35;9.30;81.30
65179;DHT22;51849;47.476;8.084;2022-09-27T04:53:02;9.40;81.00
65179;DHT22;51849;47.476;8.084;2022-09-27T04:55:28;9.40;80.80
65179;DHT22;51849;47.476;8.084;2022-09-27T04:57:54;9.30;80.10
65179;DHT22;51849;47.476;8.084;2022-09-27T05:00:20;9.40;80.20
65179;DHT22;51849;47.476;8.084;2022-09-27T05:02:48;9.40;80.70
65179;DHT22;51849;47.476;8.084;2022-09-27T05:05:14;9.40;80.90
65179;DHT22;51849;47.476;8.084;2022-09-27T05:07:40;9.30;81.00
65179;DHT22;51849;47.476;8.084;2022-09-27T05:10:06;9.30;81.60
65179;DHT22;51849;47.476;8.084;2022-09-27T05:12:35;9.30;81.20
65179;DHT22;51849;47.476;8.084;2022-09-27T05:15:01;9.30;80.90
65179;DHT22;51849;47.476;8.084;2022-09-27T05:17:27;9.40;81.00
65179;DHT22;51849;47.476;8.084;2022-09-27T05:19:53;9.30;80.90
65179;DHT22;51849;47.476;8.084;2022-09-27T05:22:19;9.30;80.80
65179;DHT22;51849;47.476;8.084;2022-09-27T05:24:44;9.40;80.90
65179;DHT22;51849;47.476;8.084;2022-09-27T05:27:12;9.30;80.90
65179;DHT22;51849;47.476;8.084;2022-09-27T05:29:43;9.30;81.60
65179;DHT22;51849;47.476;8.084;2022-09-27T05:32:09;9.30;81.00
65179;DHT22;51849;47.476;8.084;2022-09-27T05:34:35;9.30;80.90
65179;DHT22;51849;47.476;8.084;2022-09-27T05:37:00;9.20;80.20
65179;DHT22;51849;47.476;8.084;2022-09-27T05:39:26;9.20;80.40
65179;DHT22;51849;47.476;8.084;2022-09-27T05:41:51;9.10;80.40
65179;DHT22;51849;47.476;8.084;2022-09-27T05:44:19;9.00;81.10
65179;DHT22;51849;47.476;8.084;2022-09-27T05:46:45;9.00;81.40
65179;DHT22;51849;47.476;8.084;2022-09-27T05:49:10;9.00;82.50
65179;DHT22;51849;47.476;8.084;2022-09-27T05:51:36;8.90;83.10
65179;DHT22;51849;47.476;8.084;2022-09-27T05:54:02;9.00;83.30
65179;DHT22;51849;47.476;8.084;2022-09-27T05:56:28;8.90;83.70
65179;DHT22;51849;47.476;8.084;2022-09-27T05:58:54;8.90;83.80
65179;DHT22;51849;47.476;8.084;2022-09-27T06:01:19;9.00;83.20
65179;DHT22;51849;47.476;8.084;2022-09-27T06:03:45;9.00;82.90
65179;DHT22;51849;47.476;8.084;2022-09-27T06:06:12;9.00;83.40
65179;DHT22;51849;47.476;8.084;2022-09-27T06:08:39;8.90;83.10
65179;DHT22;51849;47.476;8.084;2022-09-27T06:11:07;8.90;82.60
65179;DHT22;51849;47.476;8.084;2022-09-27T06:13:37;8.90;81.70
65179;DHT22;51849;47.476;8.084;2022-09-27T06:16:07;8.90;81.50
65179;DHT22;51849;47.476;8.084;2022-09-27T06:18:35;8.90;80.50
65179;DHT22;51849;47.476;8.084;2022-09-27T06:21:02;8.80;80.80
65179;DHT22;51849;47.476;8.084;2022-09-27T06:23:29;8.80;80.30
65179;DHT22;51849;47.476;8.084;2022-09-27T06:26:02;8.80;80.70
65179;DHT22;51849;47.476;8.084;2022-09-27T06:28:29;8.80;80.90
65179;DHT22;51849;47.476;8.084;2022-09-27T06:30:56;8.80;80.10
65179;DHT22;51849;47.476;8.084;2022-09-27T06:33:24;8.70;81.00
65179;DHT22;51849;47.476;8.084;2022-09-27T06:35:52;8.60;82.10
65179;DHT22;51849;47.476;8.084;2022-09-27T06:38:18;8.40;83.40
65179;DHT22;51849;47.476;8.084;2022-09-27T06:40:45;8.50;83.90
65179;DHT22;51849;47.476;8.084;2022-09-27T06:43:21;8.40;83.90
65179;DHT22;51849;47.476;8.084;2022-09-27T06:45:47;8.40;85.00
65179;DHT22;51849;47.476;8.084;2022-09-27T06:48:13;8.40;84.40
65179;DHT22;51849;47.476;8.084;2022-09-27T06:50:41;8.40;83.80
65179;DHT22;51849;47.476;8.084;2022-09-27T06:53:14;8.40;84.80
65179;DHT22;51849;47.476;8.084;2022-09-27T06:55:41;8.40;85.10
65179;DHT22;51849;47.476;8.084;2022-09-27T06:58:08;8.40;84.40
65179;DHT22;51849;47.476;8.084;2022-09-27T07:00:53;8.60;84.50
65179;DHT22;51849;47.476;8.084;2022-09-27T07:03:19;8.60;84.10
65179;DHT22;51849;47.476;8.084;2022-09-27T07:05:57;8.70;83.10
65179;DHT22;51849;47.476;8.084;2022-09-27T07:08:25;8.70;81.60
65179;DHT22;51849;47.476;8.084;2022-09-27T07:10:51;8.80;81.50
65179;DHT22;51849;47.476;8.084;2022-09-27T07:13:19;8.90;81.40
65179;DHT22;51849;47.476;8.084;2022-09-27T07:15:45;8.90;81.10
65179;DHT22;51849;47.476;8.084;2022-09-27T07:18:11;8.90;81.00
65179;DHT22;51849;47.476;8.084;2022-09-27T07:20:37;9.00;80.60
65179;DHT22;51849;47.476;8.084;2022-09-27T07:23:03;9.00;80.30
65179;DHT22;51849;47.476;8.084;2022-09-27T07:25:32;8.90;80.00
65179;DHT22;51849;47.476;8.084;2022-09-27T07:28:02;9.00;79.70
65179;DHT22;51849;47.476;8.084;2022-09-27T07:30:30;9.00;79.70
65179;DHT22;51849;47.476;8.084;2022-09-27T07:33:00;9.20;80.30
65179;DHT22;51849;47.476;8.084;2022-09-27T07:35:30;9.30;80.20
65179;DHT22;51849;47.476;8.084;2022-09-27T07:37:56;9.40;79.20
65179;DHT22;51849;47.476;8.084;2022-09-27T07:40:23;9.50;77.90
65179;DHT22;51849;47.476;8.084;2022-09-27T07:42:57;9.60;79.40
65179;DHT22;51849;47.476;8.084;2022-09-27T07:45:24;9.50;78.30
65179;DHT22;51849;47.476;8.084;2022-09-27T07:47:50;9.50;79.00
65179;DHT22;51849;47.476;8.084;2022-09-27T07:50:17;9.60;77.90
65179;DHT22;51849;47.476;8.084;2022-09-27T07:52:44;9.60;76.30
65179;DHT22;51849;47.476;8.084;2022-09-27T07:55:12;9.50;78.30
65179;DHT22;51849;47.476;8.084;2022-09-27T07:57:39;9.50;78.00
65179;DHT22;51849;47.476;8.084;2022-09-27T08:00:09;9.60;78.30
65179;DHT22;51849;47.476;8.084;2022-09-27T08:02:39;9.70;77.00
65179;DHT22;51849;47.476;8.084;2022-09-27T08:05:09;9.80;74.70
65179;DHT22;51849;47.476;8.084;2022-09-27T08:07:36;9.80;73.20
65179;DHT22;51849;47.476;8.084;2022-09-27T08:10:04;10.00;72.80
65179;DHT22;51849;47.476;8.084;2022-09-27T08:12:31;10.00;72.10
65179;DHT22;51849;47.476;8.084;2022-09-27T08:14:57;10.00;71.90
65179;DHT22;51849;47.476;8.084;2022-09-27T08:17:29;10.10;72.30
65179;DHT22;51849;47.476;8.084;2022-09-27T08:19:55;10.20;73.00
65179;DHT22;51849;47.476;8.084;2022-09-27T08:22:21;10.30;73.40
65179;DHT22;51849;47.476;8.084;2022-09-27T08:24:47;10.40;72.10
65179;DHT22;51849;47.476;8.084;2022-09-27T08:27:13;10.40;72.40
65179;DHT22;51849;47.476;8.084;2022-09-27T08:29:39;10.50;72.60
65179;DHT22;51849;47.476;8.084;2022-09-27T08:32:06;10.50;72.40
65179;DHT22;51849;47.476;8.084;2022-09-27T08:34:35;10.70;72.40
65179;DHT22;51849;47.476;8.084;2022-09-27T08:37:02;10.80;71.50
65179;DHT22;51849;47.476;8.084;2022-09-27T08:39:28;10.70;71.10
65179;DHT22;51849;47.476;8.084;2022-09-27T08:42:05;10.70;71.80
65179;DHT22;51849;47.476;8.084;2022-09-27T08:47:35;11.10;71.80
65179;DHT22;51849;47.476;8.084;2022-09-27T08:52:59;11.90;70.00
65179;DHT22;51849;47.476;8.084;2022-09-27T08:58:01;11.70;68.90
65179;DHT22;51849;47.476;8.084;2022-09-27T09:00:35;11.60;69.70
65179;DHT22;51849;47.476;8.084;2022-09-27T09:03:01;11.50;69.30
65179;DHT22;51849;47.476;8.084;2022-09-27T09:05:28;11.40;70.30
65179;DHT22;51849;47.476;8.084;2022-09-27T09:10:47;11.00;68.90
65179;DHT22;51849;47.476;8.084;2022-09-27T09:27:04;11.30;70.20
65179;DHT22;51849;47.476;8.084;2022-09-27T09:32:27;11.20;70.20
65179;DHT22;51849;47.476;8.084;2022-09-27T09:35:00;11.20;69.90
65179;DHT22;51849;47.476;8.084;2022-09-27T09:37:40;11.20;70.10
65179;DHT22;51849;47.476;8.084;2022-09-27T09:40:40;11.20;70.20
65179;DHT22;51849;47.476;8.084;2022-09-27T09:46:00;11.20;69.40
65179;DHT22;51849;47.476;8.084;2022-09-27T09:48:33;11.20;69.30
65179;DHT22;51849;47.476;8.084;2022-09-27T09:51:07;11.20;68.80
65179;DHT22;51849;47.476;8.084;2022-09-27T09:56:31;11.00;67.50
65179;DHT22;51849;47.476;8.084;2022-09-27T09:59:04;11.00;68.50
65179;DHT22;51849;47.476;8.084;2022-09-27T10:01:40;10.90;68.50
65179;DHT22;51849;47.476;8.084;2022-09-27T10:04:42;10.90;70.30
65179;DHT22;51849;47.476;8.084;2022-09-27T10:07:00;10.90;72.60
65179;DHT22;51849;47.476;8.084;2022-09-27T10:09:26;10.50;71.80
65179;DHT22;51849;47.476;8.084;2022-09-27T10:11:53;10.00;75.10
65179;DHT22;51849;47.476;8.084;2022-09-27T10:14:21;9.50;76.10
65179;DHT22;51849;47.476;8.084;2022-09-27T10:16:54;9.30;77.50
65179;DHT22;51849;47.476;8.084;2022-09-27T10:19:30;9.10;78.90
65179;DHT22;51849;47.476;8.084;2022-09-27T10:22:00;9.00;80.10
65179;DHT22;51849;47.476;8.084;2022-09-27T10:24:28;8.90;80.30
65179;DHT22;51849;47.476;8.084;2022-09-27T10:26:57;8.80;81.20
65179;DHT22;51849;47.476;8.084;2022-09-27T10:29:28;8.90;81.80
65179;DHT22;51849;47.476;8.084;2022-09-27T10:31:56;9.10;82.10
65179;DHT22;51849;47.476;8.084;2022-09-27T10:34:36;9.10;81.90
65179;DHT22;51849;47.476;8.084;2022-09-27T10:39:37;9.30;82.20
65179;DHT22;51849;47.476;8.084;2022-09-27T10:45:20;9.40;82.70
65179;DHT22;51849;47.476;8.084;2022-09-27T10:47:51;9.30;82.00
65179;DHT22;51849;47.476;8.084;2022-09-27T10:50:18;9.40;82.40
65179;DHT22;51849;47.476;8.084;2022-09-27T10:52:59;9.40;82.90
65179;DHT22;51849;47.476;8.084;2022-09-27T10:55:26;9.40;83.10
65179;DHT22;51849;47.476;8.084;2022-09-27T10:57:52;9.30;84.00
65179;DHT22;51849;47.476;8.084;2022-09-27T11:00:23;9.40;83.80
65179;DHT22;51849;47.476;8.084;2022-09-27T11:02:53;9.40;84.00
65179;DHT22;51849;47.476;8.084;2022-09-27T11:07:53;9.30;82.10
65179;DHT22;51849;47.476;8.084;2022-09-27T11:10:29;9.50;79.60
65179;DHT22;51849;47.476;8.084;2022-09-27T11:29:46;10.50;77.20
65179;DHT22;51849;47.476;8.084;2022-09-27T11:37:26;10.80;76.60
65179;DHT22;51849;47.476;8.084;2022-09-27T11:42:33;10.80;76.60
65179;DHT22;51849;47.476;8.084;2022-09-27T11:45:29;10.90;76.90
65179;DHT22;51849;47.476;8.084;2022-09-27T12:13:56;11.20;76.80
65179;DHT22;51849;47.476;8.084;2022-09-27T12:16:27;11.40;77.40
65179;DHT22;51849;47.476;8.084;2022-09-27T12:18:58;11.40;75.20
65179;DHT22;51849;47.476;8.084;2022-09-27T12:21:26;11.40;73.80
65179;DHT22;51849;47.476;8.084;2022-09-27T12:23:57;11.50;73.60
65179;DHT22;51849;47.476;8.084;2022-09-27T12:26:26;11.50;74.90
65179;DHT22;51849;47.476;8.084;2022-09-27T12:29:16;11.70;75.40
65179;DHT22;51849;47.476;8.084;2022-09-27T12:31:48;11.90;72.80
65179;DHT22;51849;47.476;8.084;2022-09-27T12:42:12;12.50;71.20
65179;DHT22;51849;47.476;8.084;2022-09-27T12:44:50;12.60;71.40
65179;DHT22;51849;47.476;8.084;2022-09-27T12:47:27;12.60;69.40
65179;DHT22;51849;47.476;8.084;2022-09-27T12:52:46;12.70;67.60
65179;DHT22;51849;47.476;8.084;2022-09-27T13:00:58;12.60;65.60
65179;DHT22;51849;47.476;8.084;2022-09-27T13:12:50;12.20;69.00
65179;DHT22;51849;47.476;8.084;2022-09-27T13:17:53;12.30;69.30
65179;DHT22;51849;47.476;8.084;2022-09-27T13:22:52;12.40;69.90
65179;DHT22;51849;47.476;8.084;2022-09-27T13:29:01;12.30;70.70
65179;DHT22;51849;47.476;8.084;2022-09-27T13:31:13;12.20;71.40
65179;DHT22;51849;47.476;8.084;2022-09-27T13:44:20;11.80;71.00
65179;DHT22;51849;47.476;8.084;2022-09-27T13:50:01;11.80;70.30
65179;DHT22;51849;47.476;8.084;2022-09-27T13:52:39;11.80;70.90
65179;DHT22;51849;47.476;8.084;2022-09-27T13:55:54;11.80;71.20
65179;DHT22;51849;47.476;8.084;2022-09-27T13:58:11;11.80;69.70
65179;DHT22;51849;47.476;8.084;2022-09-27T14:00:43;11.60;71.70
65179;DHT22;51849;47.476;8.084;2022-09-27T14:03:14;11.50;73.00
65179;DHT22;51849;47.476;8.084;2022-09-27T14:05:50;11.40;73.40
65179;DHT22;51849;47.476;8.084;2022-09-27T14:08:21;11.40;73.40
65179;DHT22;51849;47.476;8.084;2022-09-27T14:10:52;11.20;75.20
65179;DHT22;51849;47.476;8.084;2022-09-27T14:13:19;11.20;76.10
65179;DHT22;51849;47.476;8.084;2022-09-27T14:15:47;11.10;77.70
65179;DHT22;51849;47.476;8.084;2022-09-27T14:18:14;10.80;78.00
65179;DHT22;51849;47.476;8.084;2022-09-27T14:20:41;10.70;77.40
65179;DHT22;51849;47.476;8.084;2022-09-27T14:23:22;10.50;76.60
65179;DHT22;51849;47.476;8.084;2022-09-27T14:25:52;10.30;77.90
65179;DHT22;51849;47.476;8.084;2022-09-27T14:31:04;10.40;78.80
65179;DHT22;51849;47.476;8.084;2022-09-27T14:33:43;10.50;79.30
65179;DHT22;51849;47.476;8.084;2022-09-27T14:36:28;10.50;79.40
65179;DHT22;51849;47.476;8.084;2022-09-27T14:39:15;10.40;79.10
65179;DHT22;51849;47.476;8.084;2022-09-27T14:41:47;10.40;80.40
65179;DHT22;51849;47.476;8.084;2022-09-27T14:44:13;10.50;80.20
65179;DHT22;51849;47.476;8.084;2022-09-27T14:46:41;10.50;80.40
65179;DHT22;51849;47.476;8.084;2022-09-27T14:49:11;10.60;80.00
65179;DHT22;51849;47.476;8.084;2022-09-27T14:51:51;10.60;80.70
65179;DHT22;51849;47.476;8.084;2022-09-27T14:54:25;10.50;81.10
65179;DHT22;51849;47.476;8.084;2022-09-27T14:56:53;10.50;81.40
65179;DHT22;51849;47.476;8.084;2022-09-27T14:59:32;10.50;82.10
65179;DHT22;51849;47.476;8.084;2022-09-27T15:02:00;10.50;81.70
65179;DHT22;51849;47.476;8.084;2022-09-27T15:04:30;10.50;81.80
65179;DHT22;51849;47.476;8.084;2022-09-27T15:06:56;10.50;82.10
65179;DHT22;51849;47.476;8.084;2022-09-27T15:09:24;10.50;82.50
65179;DHT22;51849;47.476;8.084;2022-09-27T15:11:54;10.50;82.40
65179;DHT22;51849;47.476;8.084;2022-09-27T15:14:25;10.40;82.50
65179;DHT22;51849;47.476;8.084;2022-09-27T15:16:53;10.40;83.10
65179;DHT22;51849;47.476;8.084;2022-09-27T15:19:25;10.40;83.10
65179;DHT22;51849;47.476;8.084;2022-09-27T15:21:55;10.40;83.60
65179;DHT22;51849;47.476;8.084;2022-09-27T15:27:12;10.50;84.40
65179;DHT22;51849;47.476;8.084;2022-09-27T15:29:38;10.50;83.80
65179;DHT22;51849;47.476;8.084;2022-09-27T15:32:05;10.50;83.70
65179;DHT22;51849;47.476;8.084;2022-09-27T15:34:32;10.30;84.60
65179;DHT22;51849;47.476;8.084;2022-09-27T15:36:59;10.20;85.40
65179;DHT22;51849;47.476;8.084;2022-09-27T15:39:40;10.10;85.30
65179;DHT22;51849;47.476;8.084;2022-09-27T15:42:09;10.10;84.40
65179;DHT22;51849;47.476;8.084;2022-09-27T15:55:12;9.30;81.50
65179;DHT22;51849;47.476;8.084;2022-09-27T15:57:39;9.20;82.40
65179;DHT22;51849;47.476;8.084;2022-09-27T16:00:09;9.10;81.50
65179;DHT22;51849;47.476;8.084;2022-09-27T16:02:37;9.10;82.60
65179;DHT22;51849;47.476;8.084;2022-09-27T16:05:03;9.00;83.40
65179;DHT22;51849;47.476;8.084;2022-09-27T16:07:29;9.00;83.30
65179;DHT22;51849;47.476;8.084;2022-09-27T16:09:55;9.00;83.40
65179;DHT22;51849;47.476;8.084;2022-09-27T16:12:21;9.00;84.80
65179;DHT22;51849;47.476;8.084;2022-09-27T16:14:46;8.90;84.30
65179;DHT22;51849;47.476;8.084;2022-09-27T16:17:12;8.90;84.20
65179;DHT22;51849;47.476;8.084;2022-09-27T16:19:39;8.80;84.90
65179;DHT22;51849;47.476;8.084;2022-09-27T16:22:07;8.80;84.00
65179;DHT22;51849;47.476;8.084;2022-09-27T16:24:33;8.90;85.40
65179;DHT22;51849;47.476;8.084;2022-09-27T16:26:58;8.90;85.40
65179;DHT22;51849;47.476;8.084;2022-09-27T16:29:24;8.80;86.00
65179;DHT22;51849;47.476;8.084;2022-09-27T16:31:50;8.90;85.80
65179;DHT22;51849;47.476;8.084;2022-09-27T16:34:17;8.90;84.80
65179;DHT22;51849;47.476;8.084;2022-09-27T16:36:43;8.90;83.90
65179;DHT22;51849;47.476;8.084;2022-09-27T16:39:10;8.80;85.10
65179;DHT22;51849;47.476;8.084;2022-09-27T16:41:37;8.80;84.90
65179;DHT22;51849;47.476;8.084;2022-09-27T16:44:10;8.80;85.20
65179;DHT22;51849;47.476;8.084;2022-09-27T16:46:41;8.80;85.20
65179;DHT22;51849;47.476;8.084;2022-09-27T16:49:10;8.80;85.50
65179;DHT22;51849;47.476;8.084;2022-09-27T16:51:54;8.80;86.00
65179;DHT22;51849;47.476;8.084;2022-09-27T16:54:29;8.80;86.10
65179;DHT22;51849;47.476;8.084;2022-09-27T16:56:56;8.90;86.20
65179;DHT22;51849;47.476;8.084;2022-09-27T16:59:22;8.90;86.40
65179;DHT22;51849;47.476;8.084;2022-09-27T17:01:51;8.90;86.70
65179;DHT22;51849;47.476;8.084;2022-09-27T17:04:20;9.00;86.70
65179;DHT22;51849;47.476;8.084;2022-09-27T17:06:47;9.00;86.20
65179;DHT22;51849;47.476;8.084;2022-09-27T17:09:12;9.00;86.00
65179;DHT22;51849;47.476;8.084;2022-09-27T17:11:38;9.10;85.90
65179;DHT22;51849;47.476;8.084;2022-09-27T17:14:06;9.10;86.10
65179;DHT22;51849;47.476;8.084;2022-09-27T17:16:34;9.10;85.80
65179;DHT22;51849;47.476;8.084;2022-09-27T17:19:00;9.10;86.00
65179;DHT22;51849;47.476;8.084;2022-09-27T17:21:26;9.10;86.20
65179;DHT22;51849;47.476;8.084;2022-09-27T17:23:52;9.20;86.50
65179;DHT22;51849;47.476;8.084;2022-09-27T17:28:44;9.10;86.50
65179;DHT22;51849;47.476;8.084;2022-09-27T17:31:11;9.10;86.60
65179;DHT22;51849;47.476;8.084;2022-09-27T17:33:43;9.10;86.70
65179;DHT22;51849;47.476;8.084;2022-09-27T17:36:14;9.20;86.80
65179;DHT22;51849;47.476;8.084;2022-09-27T17:38:51;9.20;86.70
65179;DHT22;51849;47.476;8.084;2022-09-27T17:41:18;9.30;86.50
65179;DHT22;51849;47.476;8.084;2022-09-27T17:43:52;9.30;86.60
65179;DHT22;51849;47.476;8.084;2022-09-27T17:46:20;9.30;86.40
65179;DHT22;51849;47.476;8.084;2022-09-27T17:48:47;9.40;89.70
65179;DHT22;51849;47.476;8.084;2022-09-27T17:51:35;9.60;88.00
65179;DHT22;51849;47.476;8.084;2022-09-27T17:54:02;9.60;87.30
65179;DHT22;51849;47.476;8.084;2022-09-27T17:56:29;9.60;85.60
65179;DHT22;51849;47.476;8.084;2022-09-27T17:58:58;9.60;85.70
65179;DHT22;51849;47.476;8.084;2022-09-27T18:01:25;9.60;85.80
65179;DHT22;51849;47.476;8.084;2022-09-27T18:03:52;9.50;85.30
65179;DHT22;51849;47.476;8.084;2022-09-27T18:06:19;9.50;85.40
65179;DHT22;51849;47.476;8.084;2022-09-27T18:08:45;9.40;85.50
65179;DHT22;51849;47.476;8.084;2022-09-27T18:11:12;9.40;85.60
65179;DHT22;51849;47.476;8.084;2022-09-27T18:13:43;9.40;85.60
65179;DHT22;51849;47.476;8.084;2022-09-27T18:16:10;9.40;84.60
65179;DHT22;51849;47.476;8.084;2022-09-27T18:18:38;9.40;84.80
65179;DHT22;51849;47.476;8.084;2022-09-27T18:21:06;9.40;84.00
65179;DHT22;51849;47.476;8.084;2022-09-27T18:23:38;9.30;83.60
65179;DHT22;51849;47.476;8.084;2022-09-27T18:26:04;9.30;84.00
65179;DHT22;51849;47.476;8.084;2022-09-27T18:28:34;9.30;82.10
65179;DHT22;51849;47.476;8.084;2022-09-27T18:31:02;9.40;80.20
65179;DHT22;51849;47.476;8.084;2022-09-27T18:33:39;9.40;80.10
65179;DHT22;51849;47.476;8.084;2022-09-27T18:36:05;9.40;81.60
65179;DHT22;51849;47.476;8.084;2022-09-27T18:38:34;9.40;84.10
65179;DHT22;51849;47.476;8.084;2022-09-27T18:41:19;9.40;84.80
65179;DHT22;51849;47.476;8.084;2022-09-27T18:43:46;9.40;85.40
65179;DHT22;51849;47.476;8.084;2022-09-27T18:46:16;9.30;86.40
65179;DHT22;51849;47.476;8.084;2022-09-27T18:48:43;9.50;89.40
65179;DHT22;51849;47.476;8.084;2022-09-27T18:51:14;9.60;88.50
65179;DHT22;51849;47.476;8.084;2022-09-27T18:53:41;9.60;87.70
65179;DHT22;51849;47.476;8.084;2022-09-27T18:56:12;9.50;84.60
65179;DHT22;51849;47.476;8.084;2022-09-27T18:58:39;9.40;84.10
65179;DHT22;51849;47.476;8.084;2022-09-27T19:01:07;9.30;84.20
65179;DHT22;51849;47.476;8.084;2022-09-27T19:03:38;9.40;82.80
65179;DHT22;51849;47.476;8.084;2022-09-27T19:06:15;9.30;82.60
65179;DHT22;51849;47.476;8.084;2022-09-27T19:08:45;9.30;83.00
65179;DHT22;51849;47.476;8.084;2022-09-27T19:11:15;9.40;83.30
65179;DHT22;51849;47.476;8.084;2022-09-27T19:13:42;9.30;83.50